sensor_id;sensor_type;location;lat;lon;timestamp;P1;durP1;ratioP1;P2;durP2;ratioP2
7076;SDS011;3579;48.956;9.154;2023-06-22T00:02:14;2.77;;;2.57;;
7076;SDS011;3579;48.956;9.154;2023-06-22T00:04:40;3.00;;;2.80;;
7076;SDS011;3579;48.956;9.154;2023-06-22T00:07:06;3.03;;;2.77;;
7076;SDS011;3579;48.956;9.154;2023-06-22T00:09:32;3.00;;;2.70;;
7076;SDS011;3579;48.956;9.154;2023-06-22T00:11:58;3.17;;;2.87;;
7076;SDS011;3579;48.956;9.154;2023-06-22T00:14:25;3.83;;;2.70;;
7076;SDS011;3579;48.956;9.154;2023-06-22T00:16:51;3.00;;;2.70;;
7076;SDS011;3579;48.956;9.154;2023-06-22T00:19:22;3.30;;;2.53;;
7076;SDS011;3579;48.956;9.154;2023-06-22T00:21:49;2.83;;;2.63;;
7076;SDS011;3579;48.956;9.154;2023-06-22T00:24:19;3.20;;;2.90;;
7076;SDS011;3579;48.956;9.154;2023-06-22T00:26:47;3.77;;;2.93;;
7076;SDS011;3579;48.956;9.154;2023-06-22T00:29:14;2.97;;;2.70;;
7076;SDS011;3579;48.956;9.154;2023-06-22T00:31:40;2.63;;;2.43;;
7076;SDS011;3579;48.956;9.154;2023-06-22T00:34:06;2.80;;;2.60;;
7076;SDS011;3579;48.956;9.154;2023-06-22T00:36:34;2.77;;;2.57;;
7076;SDS011;3579;48.956;9.154;2023-06-22T00:39:03;3.07;;;2.77;;
7076;SDS011;3579;48.956;9.154;2023-06-22T00:41:31;2.80;;;2.60;;
7076;SDS011;3579;48.956;9.154;2023-06-22T00:43:57;3.10;;;2.80;;
7076;SDS011;3579;48.956;9.154;2023-06-22T00:46:22;3.10;;;2.80;;
7076;SDS011;3579;48.956;9.154;2023-06-22T00:48:50;3.20;;;2.63;;
7076;SDS011;3579;48.956;9.154;2023-06-22T00:51:17;3.00;;;2.70;;
7076;SDS011;3579;48.956;9.154;2023-06-22T00:53:49;3.90;;;2.50;;
7076;SDS011;3579;48.956;9.154;2023-06-22T00:56:17;3.10;;;2.80;;
7076;SDS011;3579;48.956;9.154;2023-06-22T00:58:45;3.20;;;2.90;;
7076;SDS011;3579;48.956;9.154;2023-06-22T01:01:13;2.90;;;2.60;;
7076;SDS011;3579;48.956;9.154;2023-06-22T01:03:39;3.10;;;2.53;;
7076;SDS011;3579;48.956;9.154;2023-06-22T01:06:09;2.90;;;2.70;;
7076;SDS011;3579;48.956;9.154;2023-06-22T01:09:05;3.10;;;2.80;;
7076;SDS011;3579;48.956;9.154;2023-06-22T01:11:45;2.67;;;2.47;;
7076;SDS011;3579;48.956;9.154;2023-06-22T01:14:15;2.93;;;2.63;;
7076;SDS011;3579;48.956;9.154;2023-06-22T01:16:48;2.73;;;2.53;;
7076;SDS011;3579;48.956;9.154;2023-06-22T01:22:20;2.80;;;2.60;;
7076;SDS011;3579;48.956;9.154;2023-06-22T01:25:08;2.73;;;2.53;;
7076;SDS011;3579;48.956;9.154;2023-06-22T01:30:06;2.70;;;2.50;;
7076;SDS011;3579;48.956;9.154;2023-06-22T01:32:36;2.83;;;2.40;;
7076;SDS011;3579;48.956;9.154;2023-06-22T01:35:05;2.73;;;2.50;;
7076;SDS011;3579;48.956;9.154;2023-06-22T01:37:33;2.67;;;2.47;;
7076;SDS011;3579;48.956;9.154;2023-06-22T01:40:01;2.60;;;2.40;;
7076;SDS011;3579;48.956;9.154;2023-06-22T01:42:30;2.73;;;2.53;;
7076;SDS011;3579;48.956;9.154;2023-06-22T01:44:57;2.60;;;2.40;;
7076;SDS011;3579;48.956;9.154;2023-06-22T01:47:24;2.40;;;2.20;;
7076;SDS011;3579;48.956;9.154;2023-06-22T01:49:53;2.60;;;2.40;;
7076;SDS011;3579;48.956;9.154;2023-06-22T01:52:19;2.60;;;2.40;;
7076;SDS011;3579;48.956;9.154;2023-06-22T01:54:46;2.57;;;2.37;;
7076;SDS011;3579;48.956;9.154;2023-06-22T01:57:13;2.90;;;2.60;;
7076;SDS011;3579;48.956;9.154;2023-06-22T02:02:27;2.73;;;2.53;;
7076;SDS011;3579;48.956;9.154;2023-06-22T02:05:03;2.60;;;2.40;;
7076;SDS011;3579;48.956;9.154;2023-06-22T02:07:33;2.73;;;2.53;;
7076;SDS011;3579;48.956;9.154;2023-06-22T02:10:04;2.93;;;2.60;;
7076;SDS011;3579;48.956;9.154;2023-06-22T02:12:33;3.00;;;2.63;;
7076;SDS011;3579;48.956;9.154;2023-06-22T02:15:01;2.43;;;2.23;;
7076;SDS011;3579;48.956;9.154;2023-06-22T02:17:27;2.50;;;2.30;;
7076;SDS011;3579;48.956;9.154;2023-06-22T02:19:53;2.67;;;2.47;;
7076;SDS011;3579;48.956;9.154;2023-06-22T02:22:19;2.80;;;2.60;;
7076;SDS011;3579;48.956;9.154;2023-06-22T02:24:45;3.00;;;2.47;;
7076;SDS011;3579;48.956;9.154;2023-06-22T02:27:11;2.90;;;2.70;;
7076;SDS011;3579;48.956;9.154;2023-06-22T02:29:38;2.70;;;2.50;;
7076;SDS011;3579;48.956;9.154;2023-06-22T02:32:04;3.10;;;2.57;;
7076;SDS011;3579;48.956;9.154;2023-06-22T02:34:31;3.03;;;2.70;;
7076;SDS011;3579;48.956;9.154;2023-06-22T02:36:59;2.30;;;2.10;;
7076;SDS011;3579;48.956;9.154;2023-06-22T02:39:27;3.03;;;2.73;;
7076;SDS011;3579;48.956;9.154;2023-06-22T02:41:54;2.80;;;2.60;;
7076;SDS011;3579;48.956;9.154;2023-06-22T02:44:20;2.60;;;2.40;;
7076;SDS011;3579;48.956;9.154;2023-06-22T02:46:47;2.60;;;2.40;;
7076;SDS011;3579;48.956;9.154;2023-06-22T02:49:13;2.70;;;2.50;;
7076;SDS011;3579;48.956;9.154;2023-06-22T02:51:46;2.83;;;2.63;;
7076;SDS011;3579;48.956;9.154;2023-06-22T02:54:13;3.00;;;2.70;;
7076;SDS011;3579;48.956;9.154;2023-06-22T02:56:39;2.60;;;2.40;;
7076;SDS011;3579;48.956;9.154;2023-06-22T02:59:06;2.80;;;2.60;;
7076;SDS011;3579;48.956;9.154;2023-06-22T03:01:32;2.90;;;2.60;;
7076;SDS011;3579;48.956;9.154;2023-06-22T03:04:11;2.47;;;2.27;;
7076;SDS011;3579;48.956;9.154;2023-06-22T03:06:37;2.57;;;2.37;;
7076;SDS011;3579;48.956;9.154;2023-06-22T03:09:06;2.40;;;2.20;;
7076;SDS011;3579;48.956;9.154;2023-06-22T03:11:33;2.50;;;2.30;;
7076;SDS011;3579;48.956;9.154;2023-06-22T03:14:01;2.70;;;2.50;;
7076;SDS011;3579;48.956;9.154;2023-06-22T03:16:27;2.90;;;2.60;;
7076;SDS011;3579;48.956;9.154;2023-06-22T03:18:54;2.90;;;2.70;;
7076;SDS011;3579;48.956;9.154;2023-06-22T03:21:21;2.90;;;2.60;;
7076;SDS011;3579;48.956;9.154;2023-06-22T03:23:48;2.50;;;2.30;;
7076;SDS011;3579;48.956;9.154;2023-06-22T03:26:16;2.57;;;2.37;;
7076;SDS011;3579;48.956;9.154;2023-06-22T03:28:43;2.60;;;2.40;;
7076;SDS011;3579;48.956;9.154;2023-06-22T03:31:09;2.60;;;2.40;;
7076;SDS011;3579;48.956;9.154;2023-06-22T03:33:35;2.70;;;2.50;;
7076;SDS011;3579;48.956;9.154;2023-06-22T03:36:01;2.40;;;2.20;;
7076;SDS011;3579;48.956;9.154;2023-06-22T03:38:27;2.90;;;2.60;;
7076;SDS011;3579;48.956;9.154;2023-06-22T03:40:53;2.50;;;2.30;;
7076;SDS011;3579;48.956;9.154;2023-06-22T03:43:19;2.37;;;2.17;;
7076;SDS011;3579;48.956;9.154;2023-06-22T03:45:45;2.60;;;2.40;;
7076;SDS011;3579;48.956;9.154;2023-06-22T03:48:11;2.90;;;2.60;;
7076;SDS011;3579;48.956;9.154;2023-06-22T03:50:37;2.60;;;2.40;;
7076;SDS011;3579;48.956;9.154;2023-06-22T03:53:04;2.40;;;2.20;;
7076;SDS011;3579;48.956;9.154;2023-06-22T03:55:30;2.60;;;2.40;;
7076;SDS011;3579;48.956;9.154;2023-06-22T03:57:56;2.50;;;2.30;;
7076;SDS011;3579;48.956;9.154;2023-06-22T04:00:23;2.70;;;2.50;;
7076;SDS011;3579;48.956;9.154;2023-06-22T04:02:49;2.47;;;2.27;;
7076;SDS011;3579;48.956;9.154;2023-06-22T04:05:15;2.47;;;2.27;;
7076;SDS011;3579;48.956;9.154;2023-06-22T04:07:43;2.67;;;2.47;;
7076;SDS011;3579;48.956;9.154;2023-06-22T04:10:09;2.33;;;2.13;;
7076;SDS011;3579;48.956;9.154;2023-06-22T04:12:35;2.60;;;2.40;;
7076;SDS011;3579;48.956;9.154;2023-06-22T04:15:01;3.60;;;2.40;;
7076;SDS011;3579;48.956;9.154;2023-06-22T04:17:28;2.50;;;2.30;;
7076;SDS011;3579;48.956;9.154;2023-06-22T04:19:54;2.57;;;2.37;;
7076;SDS011;3579;48.956;9.154;2023-06-22T04:22:20;3.43;;;2.33;;
7076;SDS011;3579;48.956;9.154;2023-06-22T04:24:45;2.83;;;2.30;;
7076;SDS011;3579;48.956;9.154;2023-06-22T04:27:11;2.50;;;2.30;;
7076;SDS011;3579;48.956;9.154;2023-06-22T04:29:37;3.13;;;2.40;;
7076;SDS011;3579;48.956;9.154;2023-06-22T04:32:17;2.60;;;2.40;;
7076;SDS011;3579;48.956;9.154;2023-06-22T04:34:43;3.23;;;2.70;;
7076;SDS011;3579;48.956;9.154;2023-06-22T04:37:09;2.53;;;2.30;;
7076;SDS011;3579;48.956;9.154;2023-06-22T04:39:41;2.70;;;2.50;;
7076;SDS011;3579;48.956;9.154;2023-06-22T04:42:08;2.60;;;2.40;;
7076;SDS011;3579;48.956;9.154;2023-06-22T04:44:34;2.63;;;2.43;;
7076;SDS011;3579;48.956;9.154;2023-06-22T04:47:01;2.40;;;2.20;;
7076;SDS011;3579;48.956;9.154;2023-06-22T04:49:34;2.50;;;2.30;;
7076;SDS011;3579;48.956;9.154;2023-06-22T04:52:06;3.33;;;2.40;;
7076;SDS011;3579;48.956;9.154;2023-06-22T04:54:34;2.77;;;2.57;;
7076;SDS011;3579;48.956;9.154;2023-06-22T04:57:02;3.20;;;2.90;;
7076;SDS011;3579;48.956;9.154;2023-06-22T04:59:29;3.90;;;2.80;;
7076;SDS011;3579;48.956;9.154;2023-06-22T05:01:57;4.70;;;3.20;;
7076;SDS011;3579;48.956;9.154;2023-06-22T05:04:24;3.93;;;3.30;;
7076;SDS011;3579;48.956;9.154;2023-06-22T05:06:51;8.57;;;3.93;;
7076;SDS011;3579;48.956;9.154;2023-06-22T05:09:17;6.67;;;4.63;;
7076;SDS011;3579;48.956;9.154;2023-06-22T05:11:44;4.63;;;3.90;;
7076;SDS011;3579;48.956;9.154;2023-06-22T05:14:10;6.63;;;4.40;;
7076;SDS011;3579;48.956;9.154;2023-06-22T05:16:37;7.47;;;4.67;;
7076;SDS011;3579;48.956;9.154;2023-06-22T05:19:03;8.30;;;4.80;;
7076;SDS011;3579;48.956;9.154;2023-06-22T05:21:30;6.30;;;4.27;;
7076;SDS011;3579;48.956;9.154;2023-06-22T05:23:57;11.13;;;4.90;;
7076;SDS011;3579;48.956;9.154;2023-06-22T05:26:26;6.20;;;5.00;;
7076;SDS011;3579;48.956;9.154;2023-06-22T05:28:52;7.67;;;4.57;;
7076;SDS011;3579;48.956;9.154;2023-06-22T05:31:18;7.30;;;5.03;;
7076;SDS011;3579;48.956;9.154;2023-06-22T05:33:45;6.40;;;5.27;;
7076;SDS011;3579;48.956;9.154;2023-06-22T05:36:12;7.10;;;5.30;;
7076;SDS011;3579;48.956;9.154;2023-06-22T05:38:38;12.03;;;5.67;;
7076;SDS011;3579;48.956;9.154;2023-06-22T05:41:05;9.97;;;5.00;;
7076;SDS011;3579;48.956;9.154;2023-06-22T05:43:32;10.23;;;5.33;;
7076;SDS011;3579;48.956;9.154;2023-06-22T05:45:58;6.40;;;5.33;;
7076;SDS011;3579;48.956;9.154;2023-06-22T05:48:25;9.37;;;5.30;;
7076;SDS011;3579;48.956;9.154;2023-06-22T05:50:52;8.53;;;6.20;;
7076;SDS011;3579;48.956;9.154;2023-06-22T05:53:19;10.30;;;5.73;;
7076;SDS011;3579;48.956;9.154;2023-06-22T05:55:45;8.87;;;5.50;;
7076;SDS011;3579;48.956;9.154;2023-06-22T05:58:12;8.43;;;6.00;;
7076;SDS011;3579;48.956;9.154;2023-06-22T06:00:39;9.23;;;6.90;;
7076;SDS011;3579;48.956;9.154;2023-06-22T06:03:06;11.17;;;6.70;;
7076;SDS011;3579;48.956;9.154;2023-06-22T06:05:33;12.50;;;7.63;;
7076;SDS011;3579;48.956;9.154;2023-06-22T06:08:00;7.50;;;6.80;;
7076;SDS011;3579;48.956;9.154;2023-06-22T06:10:27;10.87;;;6.97;;
7076;SDS011;3579;48.956;9.154;2023-06-22T06:12:55;13.90;;;6.23;;
7076;SDS011;3579;48.956;9.154;2023-06-22T06:15:21;8.57;;;6.43;;
7076;SDS011;3579;48.956;9.154;2023-06-22T06:17:49;9.83;;;6.73;;
7076;SDS011;3579;48.956;9.154;2023-06-22T06:20:24;9.43;;;6.67;;
7076;SDS011;3579;48.956;9.154;2023-06-22T06:22:51;7.13;;;5.87;;
7076;SDS011;3579;48.956;9.154;2023-06-22T06:25:18;13.00;;;6.67;;
7076;SDS011;3579;48.956;9.154;2023-06-22T06:27:47;10.17;;;6.87;;
7076;SDS011;3579;48.956;9.154;2023-06-22T06:30:15;8.37;;;6.07;;
7076;SDS011;3579;48.956;9.154;2023-06-22T06:32:45;10.93;;;6.10;;
7076;SDS011;3579;48.956;9.154;2023-06-22T06:35:13;7.93;;;5.57;;
7076;SDS011;3579;48.956;9.154;2023-06-22T06:37:42;9.53;;;7.00;;
7076;SDS011;3579;48.956;9.154;2023-06-22T06:40:09;9.43;;;5.97;;
7076;SDS011;3579;48.956;9.154;2023-06-22T06:42:40;12.80;;;6.53;;
7076;SDS011;3579;48.956;9.154;2023-06-22T06:45:10;10.33;;;5.93;;
7076;SDS011;3579;48.956;9.154;2023-06-22T06:47:38;7.87;;;5.73;;
7076;SDS011;3579;48.956;9.154;2023-06-22T06:50:05;8.10;;;5.83;;
7076;SDS011;3579;48.956;9.154;2023-06-22T06:52:32;10.40;;;5.97;;
7076;SDS011;3579;48.956;9.154;2023-06-22T06:54:58;7.73;;;5.87;;
7076;SDS011;3579;48.956;9.154;2023-06-22T06:57:24;8.63;;;6.13;;
7076;SDS011;3579;48.956;9.154;2023-06-22T06:59:54;10.17;;;6.07;;
7076;SDS011;3579;48.956;9.154;2023-06-22T07:02:25;8.67;;;5.57;;
7076;SDS011;3579;48.956;9.154;2023-06-22T07:04:54;10.37;;;6.17;;
7076;SDS011;3579;48.956;9.154;2023-06-22T07:07:20;10.17;;;6.13;;
7076;SDS011;3579;48.956;9.154;2023-06-22T07:09:46;8.87;;;6.07;;
7076;SDS011;3579;48.956;9.154;2023-06-22T07:12:12;11.03;;;5.70;;
7076;SDS011;3579;48.956;9.154;2023-06-22T07:14:39;8.23;;;5.63;;
7076;SDS011;3579;48.956;9.154;2023-06-22T07:17:05;9.60;;;5.63;;
7076;SDS011;3579;48.956;9.154;2023-06-22T07:19:32;8.37;;;5.63;;
7076;SDS011;3579;48.956;9.154;2023-06-22T07:21:58;9.17;;;6.07;;
7076;SDS011;3579;48.956;9.154;2023-06-22T07:24:24;11.17;;;6.23;;
7076;SDS011;3579;48.956;9.154;2023-06-22T07:26:51;10.70;;;5.80;;
7076;SDS011;3579;48.956;9.154;2023-06-22T07:29:17;10.70;;;6.03;;
7076;SDS011;3579;48.956;9.154;2023-06-22T07:31:44;13.20;;;5.53;;
7076;SDS011;3579;48.956;9.154;2023-06-22T07:34:11;7.73;;;5.57;;
7076;SDS011;3579;48.956;9.154;2023-06-22T07:36:37;10.20;;;6.33;;
7076;SDS011;3579;48.956;9.154;2023-06-22T07:39:03;7.67;;;5.47;;
7076;SDS011;3579;48.956;9.154;2023-06-22T07:41:29;7.77;;;5.80;;
7076;SDS011;3579;48.956;9.154;2023-06-22T07:43:56;13.20;;;5.67;;
7076;SDS011;3579;48.956;9.154;2023-06-22T07:46:22;9.97;;;5.80;;
7076;SDS011;3579;48.956;9.154;2023-06-22T07:48:48;9.87;;;5.97;;
7076;SDS011;3579;48.956;9.154;2023-06-22T07:51:14;10.17;;;5.70;;
7076;SDS011;3579;48.956;9.154;2023-06-22T07:53:41;12.80;;;5.67;;
7076;SDS011;3579;48.956;9.154;2023-06-22T07:56:10;9.47;;;5.30;;
7076;SDS011;3579;48.956;9.154;2023-06-22T07:58:36;13.97;;;5.97;;
7076;SDS011;3579;48.956;9.154;2023-06-22T08:01:03;8.63;;;5.03;;
7076;SDS011;3579;48.956;9.154;2023-06-22T08:03:29;10.57;;;5.27;;
7076;SDS011;3579;48.956;9.154;2023-06-22T08:05:55;7.87;;;5.20;;
7076;SDS011;3579;48.956;9.154;2023-06-22T08:08:21;8.93;;;5.20;;
7076;SDS011;3579;48.956;9.154;2023-06-22T08:10:47;12.33;;;5.53;;
7076;SDS011;3579;48.956;9.154;2023-06-22T08:13:15;9.80;;;5.40;;
7076;SDS011;3579;48.956;9.154;2023-06-22T08:15:41;9.83;;;5.73;;
7076;SDS011;3579;48.956;9.154;2023-06-22T08:18:07;10.00;;;5.10;;
7076;SDS011;3579;48.956;9.154;2023-06-22T08:20:33;9.33;;;6.30;;
7076;SDS011;3579;48.956;9.154;2023-06-22T08:22:59;10.37;;;5.70;;
7076;SDS011;3579;48.956;9.154;2023-06-22T08:25:31;9.63;;;6.30;;
7076;SDS011;3579;48.956;9.154;2023-06-22T08:27:58;7.03;;;5.33;;
7076;SDS011;3579;48.956;9.154;2023-06-22T08:30:24;8.03;;;5.10;;
7076;SDS011;3579;48.956;9.154;2023-06-22T08:32:50;10.20;;;5.30;;
7076;SDS011;3579;48.956;9.154;2023-06-22T08:35:16;10.37;;;5.63;;
7076;SDS011;3579;48.956;9.154;2023-06-22T08:37:42;7.93;;;5.93;;
7076;SDS011;3579;48.956;9.154;2023-06-22T08:40:09;9.63;;;5.57;;
7076;SDS011;3579;48.956;9.154;2023-06-22T08:42:36;7.03;;;5.43;;
7076;SDS011;3579;48.956;9.154;2023-06-22T08:45:03;7.90;;;5.33;;
7076;SDS011;3579;48.956;9.154;2023-06-22T08:47:30;9.07;;;5.30;;
7076;SDS011;3579;48.956;9.154;2023-06-22T08:49:56;10.47;;;5.50;;
7076;SDS011;3579;48.956;9.154;2023-06-22T08:52:22;12.77;;;5.37;;
7076;SDS011;3579;48.956;9.154;2023-06-22T08:54:49;11.37;;;5.63;;
7076;SDS011;3579;48.956;9.154;2023-06-22T08:57:15;10.73;;;6.00;;
7076;SDS011;3579;48.956;9.154;2023-06-22T08:59:41;17.23;;;5.10;;
7076;SDS011;3579;48.956;9.154;2023-06-22T09:02:08;12.73;;;5.53;;
7076;SDS011;3579;48.956;9.154;2023-06-22T09:04:34;9.17;;;5.40;;
7076;SDS011;3579;48.956;9.154;2023-06-22T09:07:01;14.63;;;5.40;;
7076;SDS011;3579;48.956;9.154;2023-06-22T09:09:28;12.23;;;6.13;;
7076;SDS011;3579;48.956;9.154;2023-06-22T09:11:54;9.80;;;6.00;;
7076;SDS011;3579;48.956;9.154;2023-06-22T09:14:20;9.00;;;5.50;;
7076;SDS011;3579;48.956;9.154;2023-06-22T09:16:46;7.00;;;5.50;;
7076;SDS011;3579;48.956;9.154;2023-06-22T09:19:12;9.47;;;5.83;;
7076;SDS011;3579;48.956;9.154;2023-06-22T09:21:38;11.17;;;6.13;;
7076;SDS011;3579;48.956;9.154;2023-06-22T09:24:04;12.00;;;5.87;;
7076;SDS011;3579;48.956;9.154;2023-06-22T09:26:30;9.27;;;6.17;;
7076;SDS011;3579;48.956;9.154;2023-06-22T09:28:57;11.10;;;6.23;;
7076;SDS011;3579;48.956;9.154;2023-06-22T09:31:23;11.13;;;6.60;;
7076;SDS011;3579;48.956;9.154;2023-06-22T09:33:53;8.23;;;5.83;;
7076;SDS011;3579;48.956;9.154;2023-06-22T09:36:20;8.70;;;5.90;;
7076;SDS011;3579;48.956;9.154;2023-06-22T09:38:47;11.70;;;5.53;;
7076;SDS011;3579;48.956;9.154;2023-06-22T09:41:13;9.67;;;5.67;;
7076;SDS011;3579;48.956;9.154;2023-06-22T09:43:39;8.93;;;5.80;;
7076;SDS011;3579;48.956;9.154;2023-06-22T09:46:05;10.53;;;5.80;;
7076;SDS011;3579;48.956;9.154;2023-06-22T09:48:32;11.70;;;5.60;;
7076;SDS011;3579;48.956;9.154;2023-06-22T09:50:58;12.20;;;5.60;;
7076;SDS011;3579;48.956;9.154;2023-06-22T09:53:24;12.83;;;6.03;;
7076;SDS011;3579;48.956;9.154;2023-06-22T09:55:50;10.73;;;6.23;;
7076;SDS011;3579;48.956;9.154;2023-06-22T09:58:16;10.63;;;5.63;;
7076;SDS011;3579;48.956;9.154;2023-06-22T10:00:42;10.37;;;6.50;;
7076;SDS011;3579;48.956;9.154;2023-06-22T10:03:08;9.80;;;6.00;;
7076;SDS011;3579;48.956;9.154;2023-06-22T10:05:34;12.07;;;6.33;;
7076;SDS011;3579;48.956;9.154;2023-06-22T10:08:00;10.27;;;5.53;;
7076;SDS011;3579;48.956;9.154;2023-06-22T10:10:26;12.57;;;6.03;;
7076;SDS011;3579;48.956;9.154;2023-06-22T10:12:56;11.77;;;6.13;;
7076;SDS011;3579;48.956;9.154;2023-06-22T10:15:23;12.67;;;6.00;;
7076;SDS011;3579;48.956;9.154;2023-06-22T10:17:49;12.43;;;6.00;;
7076;SDS011;3579;48.956;9.154;2023-06-22T10:20:15;12.90;;;5.60;;
7076;SDS011;3579;48.956;9.154;2023-06-22T10:22:44;9.63;;;5.53;;
7076;SDS011;3579;48.956;9.154;2023-06-22T10:25:11;12.47;;;5.37;;
7076;SDS011;3579;48.956;9.154;2023-06-22T10:27:38;14.07;;;5.80;;
7076;SDS011;3579;48.956;9.154;2023-06-22T10:30:08;8.70;;;6.00;;
7076;SDS011;3579;48.956;9.154;2023-06-22T10:32:35;10.23;;;5.30;;
7076;SDS011;3579;48.956;9.154;2023-06-22T10:35:03;8.13;;;5.70;;
7076;SDS011;3579;48.956;9.154;2023-06-22T10:37:29;14.70;;;5.73;;
7076;SDS011;3579;48.956;9.154;2023-06-22T10:39:55;13.50;;;6.00;;
7076;SDS011;3579;48.956;9.154;2023-06-22T10:42:21;13.30;;;6.03;;
7076;SDS011;3579;48.956;9.154;2023-06-22T10:44:47;11.90;;;6.00;;
7076;SDS011;3579;48.956;9.154;2023-06-22T10:47:13;9.03;;;6.57;;
7076;SDS011;3579;48.956;9.154;2023-06-22T10:49:40;10.33;;;5.93;;
7076;SDS011;3579;48.956;9.154;2023-06-22T10:52:07;10.67;;;5.73;;
7076;SDS011;3579;48.956;9.154;2023-06-22T10:54:34;11.13;;;6.30;;
7076;SDS011;3579;48.956;9.154;2023-06-22T10:57:01;12.30;;;6.13;;
7076;SDS011;3579;48.956;9.154;2023-06-22T10:59:27;10.97;;;6.07;;
7076;SDS011;3579;48.956;9.154;2023-06-22T11:01:55;9.10;;;6.20;;
7076;SDS011;3579;48.956;9.154;2023-06-22T11:04:21;9.87;;;5.80;;
7076;SDS011;3579;48.956;9.154;2023-06-22T11:06:48;11.30;;;5.73;;
7076;SDS011;3579;48.956;9.154;2023-06-22T11:09:14;10.83;;;5.97;;
7076;SDS011;3579;48.956;9.154;2023-06-22T11:11:46;9.83;;;5.40;;
7076;SDS011;3579;48.956;9.154;2023-06-22T11:14:12;11.30;;;6.20;;
7076;SDS011;3579;48.956;9.154;2023-06-22T11:16:39;9.10;;;5.60;;
7076;SDS011;3579;48.956;9.154;2023-06-22T11:19:05;12.77;;;6.13;;
7076;SDS011;3579;48.956;9.154;2023-06-22T11:21:32;10.80;;;5.63;;
7076;SDS011;3579;48.956;9.154;2023-06-22T11:23:59;13.23;;;6.63;;
7076;SDS011;3579;48.956;9.154;2023-06-22T11:26:25;11.90;;;5.97;;
7076;SDS011;3579;48.956;9.154;2023-06-22T11:28:54;15.90;;;5.80;;
7076;SDS011;3579;48.956;9.154;2023-06-22T11:31:21;12.60;;;5.73;;
7076;SDS011;3579;48.956;9.154;2023-06-22T11:33:47;11.87;;;5.77;;
7076;SDS011;3579;48.956;9.154;2023-06-22T11:36:13;21.33;;;6.00;;
7076;SDS011;3579;48.956;9.154;2023-06-22T11:38:41;9.67;;;5.30;;
7076;SDS011;3579;48.956;9.154;2023-06-22T11:41:08;14.37;;;6.00;;
7076;SDS011;3579;48.956;9.154;2023-06-22T11:43:35;15.33;;;6.10;;
7076;SDS011;3579;48.956;9.154;2023-06-22T11:46:03;12.60;;;5.17;;
7076;SDS011;3579;48.956;9.154;2023-06-22T11:48:29;12.67;;;5.47;;
7076;SDS011;3579;48.956;9.154;2023-06-22T11:50:56;11.90;;;6.03;;
7076;SDS011;3579;48.956;9.154;2023-06-22T11:53:23;16.07;;;5.87;;
7076;SDS011;3579;48.956;9.154;2023-06-22T11:55:51;10.27;;;6.10;;
7076;SDS011;3579;48.956;9.154;2023-06-22T11:58:19;14.77;;;5.93;;
7076;SDS011;3579;48.956;9.154;2023-06-22T12:00:45;9.10;;;6.10;;
7076;SDS011;3579;48.956;9.154;2023-06-22T12:03:11;13.53;;;5.57;;
7076;SDS011;3579;48.956;9.154;2023-06-22T12:05:38;11.23;;;5.57;;
7076;SDS011;3579;48.956;9.154;2023-06-22T12:08:04;12.10;;;5.80;;
7076;SDS011;3579;48.956;9.154;2023-06-22T12:10:30;13.03;;;6.10;;
7076;SDS011;3579;48.956;9.154;2023-06-22T12:12:56;13.47;;;5.90;;
7076;SDS011;3579;48.956;9.154;2023-06-22T12:15:26;11.50;;;5.80;;
7076;SDS011;3579;48.956;9.154;2023-06-22T12:17:52;14.23;;;6.37;;
7076;SDS011;3579;48.956;9.154;2023-06-22T12:20:18;13.80;;;5.63;;
7076;SDS011;3579;48.956;9.154;2023-06-22T12:22:45;12.27;;;5.67;;
7076;SDS011;3579;48.956;9.154;2023-06-22T12:25:11;14.03;;;5.40;;
7076;SDS011;3579;48.956;9.154;2023-06-22T12:27:37;12.13;;;5.93;;
7076;SDS011;3579;48.956;9.154;2023-06-22T12:30:04;13.13;;;6.00;;
7076;SDS011;3579;48.956;9.154;2023-06-22T12:32:30;9.87;;;5.77;;
7076;SDS011;3579;48.956;9.154;2023-06-22T12:34:57;12.17;;;6.13;;
7076;SDS011;3579;48.956;9.154;2023-06-22T12:37:23;14.43;;;5.63;;
7076;SDS011;3579;48.956;9.154;2023-06-22T12:39:49;13.17;;;5.90;;
7076;SDS011;3579;48.956;9.154;2023-06-22T12:42:16;10.53;;;5.60;;
7076;SDS011;3579;48.956;9.154;2023-06-22T12:44:42;12.17;;;6.67;;
7076;SDS011;3579;48.956;9.154;2023-06-22T12:47:08;16.57;;;5.83;;
7076;SDS011;3579;48.956;9.154;2023-06-22T12:49:35;10.90;;;5.77;;
7076;SDS011;3579;48.956;9.154;2023-06-22T12:52:01;10.37;;;5.90;;
7076;SDS011;3579;48.956;9.154;2023-06-22T12:54:28;14.93;;;6.23;;
7076;SDS011;3579;48.956;9.154;2023-06-22T12:56:55;11.70;;;6.03;;
7076;SDS011;3579;48.956;9.154;2023-06-22T12:59:21;11.43;;;5.50;;
7076;SDS011;3579;48.956;9.154;2023-06-22T13:01:47;12.77;;;5.70;;
7076;SDS011;3579;48.956;9.154;2023-06-22T13:04:14;10.27;;;5.90;;
7076;SDS011;3579;48.956;9.154;2023-06-22T13:06:41;9.83;;;5.13;;
7076;SDS011;3579;48.956;9.154;2023-06-22T13:09:09;9.27;;;5.53;;
7076;SDS011;3579;48.956;9.154;2023-06-22T13:11:35;14.13;;;6.23;;
7076;SDS011;3579;48.956;9.154;2023-06-22T13:14:02;13.60;;;6.57;;
7076;SDS011;3579;48.956;9.154;2023-06-22T13:16:28;13.63;;;6.33;;
7076;SDS011;3579;48.956;9.154;2023-06-22T13:18:54;15.07;;;6.50;;
7076;SDS011;3579;48.956;9.154;2023-06-22T13:21:20;13.00;;;6.37;;
7076;SDS011;3579;48.956;9.154;2023-06-22T13:23:46;11.07;;;6.13;;
7076;SDS011;3579;48.956;9.154;2023-06-22T13:26:12;8.67;;;5.57;;
7076;SDS011;3579;48.956;9.154;2023-06-22T13:28:38;11.77;;;5.90;;
7076;SDS011;3579;48.956;9.154;2023-06-22T13:31:04;10.90;;;5.67;;
7076;SDS011;3579;48.956;9.154;2023-06-22T13:33:31;12.03;;;6.33;;
7076;SDS011;3579;48.956;9.154;2023-06-22T13:35:57;10.27;;;6.33;;
7076;SDS011;3579;48.956;9.154;2023-06-22T13:38:23;14.90;;;7.17;;
7076;SDS011;3579;48.956;9.154;2023-06-22T13:40:49;14.30;;;6.67;;
7076;SDS011;3579;48.956;9.154;2023-06-22T13:43:15;14.67;;;6.63;;
7076;SDS011;3579;48.956;9.154;2023-06-22T13:45:42;15.43;;;6.50;;
7076;SDS011;3579;48.956;9.154;2023-06-22T13:48:11;12.03;;;6.03;;
7076;SDS011;3579;48.956;9.154;2023-06-22T13:50:37;23.03;;;6.77;;
7076;SDS011;3579;48.956;9.154;2023-06-22T13:53:03;13.90;;;6.10;;
7076;SDS011;3579;48.956;9.154;2023-06-22T13:55:29;21.83;;;6.80;;
7076;SDS011;3579;48.956;9.154;2023-06-22T13:57:56;11.77;;;5.70;;
7076;SDS011;3579;48.956;9.154;2023-06-22T14:00:22;21.23;;;6.53;;
7076;SDS011;3579;48.956;9.154;2023-06-22T14:02:48;13.73;;;6.73;;
7076;SDS011;3579;48.956;9.154;2023-06-22T14:05:14;17.40;;;6.80;;
7076;SDS011;3579;48.956;9.154;2023-06-22T14:07:40;17.33;;;6.90;;
7076;SDS011;3579;48.956;9.154;2023-06-22T14:10:06;18.40;;;6.33;;
7076;SDS011;3579;48.956;9.154;2023-06-22T14:12:33;12.37;;;6.57;;
7076;SDS011;3579;48.956;9.154;2023-06-22T14:14:59;13.87;;;6.50;;
7076;SDS011;3579;48.956;9.154;2023-06-22T14:17:25;14.97;;;6.27;;
7076;SDS011;3579;48.956;9.154;2023-06-22T14:19:52;13.53;;;7.23;;
7076;SDS011;3579;48.956;9.154;2023-06-22T14:22:19;12.07;;;6.87;;
7076;SDS011;3579;48.956;9.154;2023-06-22T14:24:45;20.30;;;7.07;;
7076;SDS011;3579;48.956;9.154;2023-06-22T14:27:12;14.53;;;6.20;;
7076;SDS011;3579;48.956;9.154;2023-06-22T14:29:38;13.97;;;6.27;;
7076;SDS011;3579;48.956;9.154;2023-06-22T14:32:04;17.73;;;6.80;;
7076;SDS011;3579;48.956;9.154;2023-06-22T14:34:32;16.53;;;6.30;;
7076;SDS011;3579;48.956;9.154;2023-06-22T14:37:04;21.23;;;6.87;;
7076;SDS011;3579;48.956;9.154;2023-06-22T14:39:35;14.23;;;7.07;;
7076;SDS011;3579;48.956;9.154;2023-06-22T14:42:01;11.03;;;6.03;;
7076;SDS011;3579;48.956;9.154;2023-06-22T14:44:29;10.40;;;5.87;;
7076;SDS011;3579;48.956;9.154;2023-06-22T14:46:55;11.30;;;6.33;;
7076;SDS011;3579;48.956;9.154;2023-06-22T14:49:22;15.47;;;6.97;;
7076;SDS011;3579;48.956;9.154;2023-06-22T14:51:48;14.33;;;6.00;;
7076;SDS011;3579;48.956;9.154;2023-06-22T14:54:14;15.27;;;6.13;;
7076;SDS011;3579;48.956;9.154;2023-06-22T14:56:41;17.77;;;6.43;;
7076;SDS011;3579;48.956;9.154;2023-06-22T14:59:08;15.00;;;6.23;;
7076;SDS011;3579;48.956;9.154;2023-06-22T15:01:34;13.03;;;6.00;;
7076;SDS011;3579;48.956;9.154;2023-06-22T15:04:01;21.50;;;6.20;;
7076;SDS011;3579;48.956;9.154;2023-06-22T15:06:28;13.07;;;5.83;;
7076;SDS011;3579;48.956;9.154;2023-06-22T15:08:54;12.67;;;5.30;;
7076;SDS011;3579;48.956;9.154;2023-06-22T15:11:20;17.87;;;5.10;;
7076;SDS011;3579;48.956;9.154;2023-06-22T15:13:46;15.47;;;5.37;;
7076;SDS011;3579;48.956;9.154;2023-06-22T15:16:12;12.87;;;5.17;;
7076;SDS011;3579;48.956;9.154;2023-06-22T15:18:38;14.83;;;5.00;;